Time;durP1;ratioP1;P1;durP2;ratioP2;P2;SDS_P1;SDS_P2;PMS_P1;PMS_P2;Temp;Humidity;BMP_temperature;BMP_pressure;BME280_temperature;BME280_humidity;BME280_pressure;Samples;Min_cycle;Max_cycle;Signal;HPM_P1;HPM_P2
2021/05/17 00:00:10;;;;;;;3.65;1.85;;;;;;;22.01;53.09;100482.92;1778059;79;21092;-50
2021/05/17 00:02:38;;;;;;;4.37;1.72;;;;;;;22.01;53.12;100474.98;1783678;79;21103;-49
2021/05/17 00:05:07;;;;;;;3.00;1.90;;;;;;;22.01;53.13;100475.48;1773741;79;21033;-49
2021/05/17 00:07:36;;;;;;;2.72;2.00;;;;;;;22.00;53.16;100470.66;1787189;79;21614;-48
2021/05/17 00:10:06;;;;;;;6.75;2.02;;;;;;;22.01;53.17;100463.05;1784079;79;21158;-50
2021/05/17 00:12:33;;;;;;;9.63;2.50;;;;;;;22.01;53.23;100460.41;1766031;79;21080;-50
2021/05/17 00:15:00;;;;;;;5.15;1.95;;;;;;;22.00;53.20;100450.78;1731808;81;21085;-49
2021/05/17 00:17:29;;;;;;;2.70;1.80;;;;;;;21.99;53.18;100449.08;1733900;82;21072;-49
2021/05/17 00:19:55;;;;;;;3.42;2.22;;;;;;;21.98;53.19;100450.05;1737415;82;21070;-49
2021/05/17 00:22:23;;;;;;;4.50;1.90;;;;;;;21.96;53.16;100444.48;1738575;80;21049;-49
2021/05/17 00:24:52;;;;;;;3.05;2.10;;;;;;;21.92;53.17;100434.61;1735252;80;21048;-49
2021/05/17 00:27:20;;;;;;;2.58;1.90;;;;;;;21.90;53.28;100425.93;1774831;79;21624;-49
2021/05/17 00:29:49;;;;;;;3.80;2.00;;;;;;;21.87;53.29;100432.76;1768707;79;21590;-49
2021/05/17 00:32:16;;;;;;;4.45;1.82;;;;;;;21.85;53.45;100428.05;1780689;79;21048;-50
2021/05/17 00:34:43;;;;;;;5.87;2.20;;;;;;;21.83;53.53;100424.67;1751942;79;21076;-50
2021/05/17 00:37:11;;;;;;;3.83;2.02;;;;;;;21.82;53.55;100413.73;1753751;80;21095;-49
2021/05/17 00:39:38;;;;;;;5.67;2.30;;;;;;;21.82;53.43;100415.05;1775696;79;21068;-50
2021/05/17 00:42:08;;;;;;;4.20;2.15;;;;;;;21.82;53.53;100415.05;1779801;79;21113;-50
2021/05/17 00:44:38;;;;;;;3.67;2.10;;;;;;;21.80;53.74;100410.31;1707607;82;21081;-48
2021/05/17 00:47:14;;;;;;;4.42;2.30;;;;;;;21.77;53.91;100412.70;1705267;82;21109;-49
2021/05/17 00:49:41;;;;;;;4.75;2.45;;;;;;;21.76;54.02;100402.23;1684854;83;21068;-50
2021/05/17 00:52:10;;;;;;;5.75;2.00;;;;;;;21.75;53.95;100393.91;1775496;79;21087;-49
2021/05/17 00:54:37;;;;;;;2.80;2.50;;;;;;;21.72;53.81;100383.05;1750235;80;21098;-49
2021/05/17 00:57:06;;;;;;;5.45;2.50;;;;;;;21.71;53.73;100383.17;1705472;82;21091;-49
2021/05/17 00:59:34;;;;;;;7.75;2.58;;;;;;;21.66;53.70;100385.30;1679884;83;21048;-50
2021/05/17 01:02:02;;;;;;;2.42;2.22;;;;;;;21.63;53.74;100382.89;1706341;82;21065;-50
2021/05/17 01:04:37;;;;;;;4.60;2.80;;;;;;;21.60;53.76;100379.13;1715199;82;21020;-50
2021/05/17 01:07:06;;;;;;;3.52;2.52;;;;;;;21.57;53.73;100375.39;1720009;82;21541;-49
2021/05/17 01:09:33;;;;;;;4.47;2.50;;;;;;;21.55;53.43;100375.98;1692657;84;21053;-49
2021/05/17 01:12:00;;;;;;;7.78;2.77;;;;;;;21.51;53.13;100375.84;1698380;83;21118;-49
2021/05/17 01:14:28;;;;;;;3.22;2.25;;;;;;;21.47;53.01;100380.99;1649683;85;21134;-49
2021/05/17 01:16:57;;;;;;;4.50;2.77;;;;;;;21.43;53.01;100382.17;1718916;82;21048;-49
2021/05/17 01:19:38;;;;;;;5.05;2.80;;;;;;;21.38;53.04;100384.29;1693484;83;21561;-49
2021/05/17 01:22:11;;;;;;;3.30;2.67;;;;;;;21.36;52.95;100388.85;1703390;83;21051;-47
2021/05/17 01:24:40;;;;;;;4.75;3.00;;;;;;;21.33;52.93;100375.85;1725450;82;21087;-49
2021/05/17 01:27:09;;;;;;;3.70;2.58;;;;;;;21.29;52.78;100374.38;1705030;83;21031;-49
2021/05/17 01:29:39;;;;;;;5.27;2.30;;;;;;;21.25;52.75;100375.06;1717644;82;21112;-49
2021/05/17 01:32:08;;;;;;;4.95;2.50;;;;;;;21.21;52.79;100379.34;1717009;83;21139;-49
2021/05/17 01:34:37;;;;;;;4.45;3.20;;;;;;;21.14;53.06;100379.44;1714569;83;21091;-48
2021/05/17 01:37:08;;;;;;;5.62;3.35;;;;;;;21.03;53.33;100383.69;1665847;85;21618;-48
2021/05/17 01:39:36;;;;;;;7.37;3.70;;;;;;;20.96;53.56;100371.80;1669211;85;21112;-48
2021/05/17 01:42:06;;;;;;;5.65;3.62;;;;;;;20.95;53.72;100374.56;1662540;85;21218;-49
2021/05/17 01:44:33;;;;;;;6.12;3.47;;;;;;;20.95;53.85;100377.21;1647153;85;21065;-49
2021/05/17 01:47:00;;;;;;;6.12;3.00;;;;;;;20.94;54.20;100379.00;1602491;85;21072;-49
2021/05/17 01:49:27;;;;;;;5.15;3.20;;;;;;;20.88;54.73;100386.52;1629977;85;21081;-49
2021/05/17 01:51:55;;;;;;;7.05;3.17;;;;;;;20.93;54.97;100393.66;1659823;85;21154;-48
2021/05/17 01:54:22;;;;;;;6.47;3.90;;;;;;;20.94;55.19;100395.34;1651613;85;21587;-49
2021/05/17 01:56:51;;;;;;;4.35;3.08;;;;;;;20.95;55.37;100390.44;1636825;85;21095;-49
2021/05/17 01:59:30;;;;;;;3.87;3.00;;;;;;;20.96;55.43;100390.79;1656841;84;21211;-49
2021/05/17 02:01:57;;;;;;;5.47;3.67;;;;;;;20.98;55.47;100385.77;1689848;83;21121;-49
2021/05/17 02:04:25;;;;;;;5.20;3.80;;;;;;;21.01;55.36;100390.86;1679458;83;21169;-49
2021/05/17 02:06:53;;;;;;;7.72;4.00;;;;;;;21.04;55.28;100385.37;1670736;84;21061;-50
2021/05/17 02:09:21;;;;;;;5.47;3.62;;;;;;;21.05;55.12;100387.07;1627381;86;21069;-50
2021/05/17 02:11:49;;;;;;;6.47;3.80;;;;;;;21.06;55.01;100390.07;1684644;83;21109;-48
2021/05/17 02:14:24;;;;;;;6.83;3.70;;;;;;;21.05;54.99;100389.72;1667081;84;21077;-48
2021/05/17 02:16:53;;;;;;;11.40;3.77;;;;;;;21.08;54.98;100393.10;1689372;83;21070;-50
2021/05/17 02:19:23;;;;;;;5.83;3.80;;;;;;;21.10;54.85;100389.87;1669582;84;21095;-49
2021/05/17 02:21:51;;;;;;;5.42;4.08;;;;;;;21.11;54.19;100390.22;1632805;86;21082;-50
2021/05/17 02:24:18;;;;;;;7.20;4.10;;;;;;;21.08;53.75;100391.78;1688060;83;21715;-49
2021/05/17 02:26:46;;;;;;;5.83;3.60;;;;;;;21.05;53.58;100381.78;1697045;81;21028;-50
2021/05/17 02:29:13;;;;;;;4.80;3.47;;;;;;;21.01;53.71;100380.27;1753580;80;21575;-50
2021/05/17 02:31:41;;;;;;;4.72;4.08;;;;;;;20.96;53.70;100374.45;1771520;79;21064;-49
2021/05/17 02:34:09;;;;;;;6.58;4.30;;;;;;;20.94;53.66;100377.68;1766188;79;21059;-49
2021/05/17 02:36:37;;;;;;;4.55;3.47;;;;;;;20.91;53.41;100372.63;1778972;80;21071;-49
2021/05/17 02:39:06;;;;;;;5.58;3.55;;;;;;;20.89;53.15;100373.20;1774269;79;21544;-49
2021/05/17 02:41:34;;;;;;;5.87;2.90;;;;;;;20.84;52.86;100371.34;1783785;79;21072;-50
2021/05/17 02:44:01;;;;;;;6.08;3.08;;;;;;;20.78;52.71;100375.74;1757302;80;21022;-49
2021/05/17 02:46:29;;;;;;;5.80;4.10;;;;;;;20.72;52.77;100370.88;1778924;79;21032;-49
2021/05/17 02:48:56;;;;;;;14.07;6.10;;;;;;;20.67;52.92;100367.70;1773053;79;21031;-49
2021/05/17 02:51:23;;;;;;;13.68;9.38;;;;;;;20.63;53.08;100368.86;1785025;79;21150;-49
2021/05/17 02:53:58;;;;;;;25.00;15.10;;;;;;;20.60;53.24;100363.80;1782735;79;21575;-49
2021/05/17 02:56:36;;;;;;;35.28;23.77;;;;;;;20.59;53.43;100359.45;1783311;79;21052;-50
2021/05/17 02:59:05;;;;;;;41.63;26.30;;;;;;;20.56;53.57;100362.33;1703363;83;21060;-49
2021/05/17 03:01:38;;;;;;;46.95;31.33;;;;;;;20.53;53.81;100361.20;1705445;82;21144;-48
2021/05/17 03:04:12;;;;;;;55.73;36.88;;;;;;;20.49;54.02;100361.05;1701865;83;21047;-49
2021/05/17 03:06:40;;;;;;;60.33;37.45;;;;;;;20.49;54.12;100356.22;1666366;84;21135;-49
2021/05/17 03:09:09;;;;;;;61.42;39.40;;;;;;;20.47;54.27;100355.02;1673117;84;21624;-49
2021/05/17 03:11:46;;;;;;;51.55;35.05;;;;;;;20.43;54.27;100350.89;1633532;86;21078;-49
2021/05/17 03:14:15;;;;;;;60.17;36.75;;;;;;;20.42;54.41;100356.30;1648430;86;21120;-50
2021/05/17 03:16:47;;;;;;;56.35;36.48;;;;;;;20.40;54.62;100360.38;1649820;86;21636;-48
2021/05/17 03:19:15;;;;;;;68.92;44.83;;;;;;;20.41;54.72;100362.05;1632347;85;21052;-47
2021/05/17 03:21:43;;;;;;;77.95;51.55;;;;;;;20.42;54.86;100362.43;1653315;85;21190;-49
2021/05/17 03:24:11;;;;;;;77.50;55.85;;;;;;;20.44;55.00;100362.31;1648295;86;21133;-48
2021/05/17 03:26:38;;;;;;;68.20;46.42;;;;;;;20.45;55.11;100368.81;1652285;86;21598;-48
2021/05/17 03:29:05;;;;;;;51.63;36.50;;;;;;;20.46;55.29;100376.27;1654620;86;21031;-49
2021/05/17 03:31:32;;;;;;;48.52;34.03;;;;;;;20.48;55.49;100381.83;1649824;86;21130;-49
2021/05/17 03:33:59;;;;;;;38.83;28.75;;;;;;;20.49;55.62;100379.55;1651189;86;21127;-49
2021/05/17 03:36:26;;;;;;;33.18;25.23;;;;;;;20.53;55.74;100385.45;1648604;85;21171;-50
2021/05/17 03:38:53;;;;;;;31.93;24.25;;;;;;;20.58;55.75;100390.82;1644178;86;21074;-50
2021/05/17 03:41:20;;;;;;;36.58;24.80;;;;;;;20.63;55.73;100396.63;1649870;85;21521;-48
2021/05/17 03:43:46;;;;;;;35.17;25.08;;;;;;;20.67;55.76;100394.14;1651941;85;21614;-48
2021/05/17 03:46:13;;;;;;;33.63;26.33;;;;;;;20.72;55.81;100399.97;1654103;85;21070;-48
2021/05/17 03:48:43;;;;;;;30.15;24.70;;;;;;;20.77;55.81;100399.16;1654693;85;21566;-48
2021/05/17 03:51:13;;;;;;;29.98;22.05;;;;;;;20.83;55.84;100397.44;1673782;84;21041;-48
2021/05/17 03:53:40;;;;;;;28.95;18.80;;;;;;;20.89;55.81;100398.80;1677588;84;21116;-50
2021/05/17 03:56:07;;;;;;;24.27;16.35;;;;;;;20.94;55.76;100400.16;1704337;82;21052;-50
2021/05/17 03:58:35;;;;;;;17.98;12.70;;;;;;;20.99;55.73;100411.28;1728994;82;21076;-48
2021/05/17 04:01:03;;;;;;;15.28;12.00;;;;;;;21.04;55.68;100409.17;1731662;82;21028;-49
2021/05/17 04:03:31;;;;;;;12.98;10.68;;;;;;;21.11;55.62;100413.56;1752805;79;21092;-49
2021/05/17 04:13:58;;;;;;;20.92;16.20;;;;;;;21.32;55.87;100423.11;1697958;83;21136;-49
2021/05/17 04:16:25;;;;;;;23.25;17.42;;;;;;;21.38;55.88;100420.88;1699375;83;21144;-49
2021/05/17 04:18:52;;;;;;;26.52;19.60;;;;;;;21.43;55.85;100420.05;1698979;83;21622;-48
2021/05/17 04:21:18;;;;;;;24.40;17.10;;;;;;;21.50;55.87;100425.28;1688107;83;21080;-48
2021/05/17 04:23:46;;;;;;;30.68;22.42;;;;;;;21.55;55.86;100430.26;1692811;83;21092;-49
2021/05/17 04:26:12;;;;;;;36.03;25.40;;;;;;;21.61;55.71;100435.96;1634957;86;21639;-48
2021/05/17 04:28:39;;;;;;;37.20;28.15;;;;;;;21.67;55.65;100442.61;1648173;86;21104;-49
2021/05/17 04:31:05;;;;;;;39.83;29.98;;;;;;;21.74;55.62;100441.22;1630091;86;21575;-48
2021/05/17 04:33:32;;;;;;;43.15;27.40;;;;;;;21.81;55.48;100446.42;1641500;86;21057;-49
2021/05/17 04:36:00;;;;;;;36.45;26.73;;;;;;;21.88;55.38;100442.88;1670703;85;21100;-48
2021/05/17 04:38:26;;;;;;;35.08;23.85;;;;;;;21.96;55.31;100442.70;1691606;83;21578;-49
2021/05/17 04:40:53;;;;;;;33.67;23.02;;;;;;;22.05;55.14;100451.27;1677778;83;21060;-48
2021/05/17 04:43:21;;;;;;;33.42;22.60;;;;;;;22.14;54.94;100451.08;1705880;83;21064;-49
2021/05/17 04:45:47;;;;;;;29.65;20.00;;;;;;;22.21;54.80;100462.45;1695736;83;21575;-49
2021/05/17 04:48:14;;;;;;;29.55;20.43;;;;;;;22.29;54.62;100466.70;1635160;86;21106;-48
2021/05/17 04:50:41;;;;;;;33.53;22.37;;;;;;;22.38;54.40;100467.32;1640218;86;21630;-49
2021/05/17 04:53:08;;;;;;;37.25;23.45;;;;;;;22.46;54.23;100476.87;1640189;86;21067;-49
2021/05/17 04:55:35;;;;;;;30.92;20.32;;;;;;;22.55;54.10;100471.36;1643162;86;21619;-48
2021/05/17 04:58:02;;;;;;;26.40;17.45;;;;;;;22.61;53.96;100469.12;1625598;86;21084;-49
2021/05/17 05:00:28;;;;;;;19.23;13.13;;;;;;;22.70;53.83;100472.03;1644673;86;21109;-49
2021/05/17 05:02:55;;;;;;;19.02;11.70;;;;;;;22.75;53.55;100469.89;1637888;86;21104;-48
2021/05/17 05:05:22;;;;;;;16.35;10.60;;;;;;;22.79;53.17;100469.55;1696053;82;21069;-49
2021/05/17 05:07:49;;;;;;;14.65;8.75;;;;;;;22.86;52.85;100467.24;1722502;82;21112;-48
2021/05/17 05:10:16;;;;;;;10.08;7.90;;;;;;;22.92;52.68;100473.41;1712237;82;21160;-49
2021/05/17 05:12:44;;;;;;;9.40;7.58;;;;;;;22.98;52.43;100468.98;1694893;82;21057;-48
2021/05/17 05:15:12;;;;;;;10.53;7.67;;;;;;;23.01;52.19;100471.37;1704678;83;21122;-48
2021/05/17 05:17:39;;;;;;;9.23;6.67;;;;;;;23.03;51.83;100480.06;1701689;82;21061;-49
2021/05/17 05:20:08;;;;;;;8.48;6.65;;;;;;;23.04;51.83;100480.45;1703303;82;21577;-49
2021/05/17 05:22:35;;;;;;;3.45;3.02;;;;;;;23.04;52.03;100481.77;1720098;82;21009;-48
2021/05/17 05:25:05;;;;;;;6.83;2.80;;;;;;;23.05;52.09;100494.06;1765777;80;21576;-48
2021/05/17 05:32:31;;;;;;;2.87;2.25;;;;;;;23.00;51.82;100481.65;1715275;82;21090;-49
2021/05/17 05:34:58;;;;;;;4.65;1.77;;;;;;;22.96;51.79;100478.84;1707476;83;21108;-49
2021/05/17 05:37:25;;;;;;;3.83;2.15;;;;;;;22.95;51.90;100479.81;1719125;81;21620;-47
2021/05/17 05:39:52;;;;;;;4.37;2.25;;;;;;;22.94;51.56;100483.42;1723432;81;21072;-49
2021/05/17 05:42:20;;;;;;;2.55;1.80;;;;;;;22.91;51.37;100484.52;1707953;82;21642;-49
2021/05/17 05:44:48;;;;;;;2.62;1.92;;;;;;;22.90;51.42;100480.64;1712581;82;21021;-49
2021/05/17 05:47:16;;;;;;;3.85;1.85;;;;;;;22.88;51.32;100478.58;1706463;81;21100;-49
2021/05/17 05:49:47;;;;;;;3.05;1.72;;;;;;;22.88;51.23;100478.58;1714885;81;21091;-49
2021/05/17 05:52:15;;;;;;;2.67;1.60;;;;;;;22.87;51.21;100484.40;1696361;83;21056;-47
2021/05/17 05:54:43;;;;;;;2.12;1.85;;;;;;;22.89;51.40;100480.29;1698750;83;21555;-48
2021/05/17 05:57:09;;;;;;;2.85;1.80;;;;;;;22.91;51.23;100481.02;1696962;83;21096;-49
2021/05/17 05:59:36;;;;;;;2.50;1.82;;;;;;;22.95;50.60;100485.13;1640929;85;21073;-49
2021/05/17 06:02:04;;;;;;;1.95;1.50;;;;;;;22.96;50.20;100490.30;1643475;85;21159;-49
2021/05/17 06:04:31;;;;;;;3.95;1.95;;;;;;;22.95;50.19;100495.27;1657167;85;21128;-49
2021/05/17 06:06:59;;;;;;;3.10;2.30;;;;;;;22.96;50.02;100492.10;1651530;85;21116;-48
2021/05/17 06:09:27;;;;;;;3.22;1.80;;;;;;;22.96;50.12;100494.28;1696364;83;22367;-48
2021/05/17 06:11:56;;;;;;;3.00;2.00;;;;;;;22.94;50.56;100491.37;1692828;83;21044;-48
2021/05/17 06:14:24;;;;;;;3.58;2.17;;;;;;;22.94;51.38;100492.70;1656413;85;21655;-48
2021/05/17 06:16:54;;;;;;;2.35;1.80;;;;;;;22.96;51.36;100484.14;1691317;83;21055;-48
2021/05/17 06:19:23;;;;;;;4.33;1.95;;;;;;;22.96;51.09;100484.14;1700374;83;21104;-48
2021/05/17 06:21:50;;;;;;;7.85;2.10;;;;;;;23.01;50.63;100492.61;1699159;83;21095;-47
2021/05/17 06:24:19;;;;;;;2.98;2.20;;;;;;;23.05;50.90;100480.31;1697895;83;21121;-47
2021/05/17 06:26:47;;;;;;;4.45;1.85;;;;;;;23.12;50.80;100486.00;1709450;83;21155;-48
2021/05/17 06:29:14;;;;;;;3.60;2.17;;;;;;;23.18;50.64;100479.73;1744187;81;21037;-48
2021/05/17 06:31:46;;;;;;;2.55;1.70;;;;;;;23.27;50.50;100486.11;1708599;82;21110;-48
2021/05/17 06:34:13;;;;;;;5.42;2.12;;;;;;;23.35;50.96;100485.05;1674949;83;21079;-48
2021/05/17 06:36:40;;;;;;;3.47;2.30;;;;;;;23.43;50.90;100485.33;1676872;84;21609;-47
2021/05/17 06:39:09;;;;;;;1.98;1.70;;;;;;;23.52;50.69;100482.40;1691293;83;21076;-48
2021/05/17 06:41:36;;;;;;;3.90;2.30;;;;;;;23.62;50.38;100482.88;1704694;83;21123;-47
2021/05/17 06:44:06;;;;;;;2.92;2.10;;;;;;;23.71;50.22;100490.12;1702031;83;21063;-48
2021/05/17 06:46:34;;;;;;;4.87;2.33;;;;;;;23.81;50.01;100487.08;1687499;83;21538;-51
2021/05/17 06:49:01;;;;;;;2.50;2.10;;;;;;;23.91;49.87;100484.04;1674406;84;21201;-48
2021/05/17 06:51:29;;;;;;;3.17;2.17;;;;;;;24.03;49.50;100483.07;1685734;84;21095;-48
2021/05/17 06:53:59;;;;;;;3.42;2.05;;;;;;;24.15;49.71;100483.39;1690238;82;21070;-48
2021/05/17 06:56:47;;;;;;;5.67;2.70;;;;;;;24.22;49.67;100478.42;1692610;83;21075;-48
2021/05/17 06:59:14;;;;;;;4.55;2.17;;;;;;;24.33;49.37;100481.05;1690782;83;21108;-47
2021/05/17 07:01:40;;;;;;;3.15;2.37;;;;;;;24.47;49.47;100478.55;1677999;83;21103;-48
2021/05/17 07:04:10;;;;;;;5.42;2.08;;;;;;;24.67;49.25;100477.72;1684836;83;21073;-48
2021/05/17 07:06:38;;;;;;;3.55;2.30;;;;;;;24.97;48.65;100481.83;1676806;83;21102;-49
2021/05/17 07:14:30;;;;;;;6.70;5.40;;;;;;;26.23;46.24;100474.16;1619638;87;21114;-48
2021/05/17 07:16:57;;;;;;;3.50;2.40;;;;;;;26.68;44.99;100464.59;1624106;87;21091;-48
2021/05/17 07:19:24;;;;;;;6.05;2.50;;;;;;;27.11;44.13;100474.30;1610826;86;21117;-49
2021/05/17 07:24:36;;;;;;;2.80;2.02;;;;;;;27.77;42.23;100472.83;1660876;83;21611;-48
2021/05/17 07:27:05;;;;;;;4.03;2.15;;;;;;;28.02;40.95;100466.80;1699678;83;21095;-49
2021/05/17 07:29:34;;;;;;;2.55;2.33;;;;;;;28.18;40.36;100466.95;1701267;82;21634;-49
2021/05/17 07:32:00;;;;;;;2.77;2.30;;;;;;;28.27;39.97;100466.54;1716048;82;21476;-48
2021/05/17 07:34:29;;;;;;;3.42;2.90;;;;;;;28.33;39.58;100470.78;1711736;81;21141;-49
2021/05/17 07:36:55;;;;;;;3.92;2.35;;;;;;;28.36;39.08;100467.78;1715224;82;21086;-48
2021/05/17 07:39:22;;;;;;;2.80;2.15;;;;;;;28.32;38.61;100466.91;1694149;82;21076;-48
2021/05/17 07:41:49;;;;;;;5.78;2.90;;;;;;;28.18;39.06;100467.80;1716930;82;21961;-48
2021/05/17 07:44:15;;;;;;;4.33;2.30;;;;;;;28.01;39.85;100465.95;1704897;82;21019;-48
2021/05/17 07:46:42;;;;;;;6.53;2.65;;;;;;;27.86;40.09;100466.59;1710263;83;21157;-48
2021/05/17 07:49:18;;;;;;;3.70;2.55;;;;;;;27.70;40.32;100470.42;1699152;83;21159;-48
2021/05/17 07:51:45;;;;;;;3.52;3.08;;;;;;;27.53;40.77;100466.72;1712070;82;21064;-49
2021/05/17 07:54:13;;;;;;;4.67;3.02;;;;;;;27.35;41.20;100462.62;1710510;82;21583;-49
2021/05/17 07:56:40;;;;;;;5.35;2.30;;;;;;;27.22;41.16;100459.41;1708849;81;21587;-49
2021/05/17 07:59:09;;;;;;;4.00;2.40;;;;;;;27.09;41.46;100465.59;1702620;81;21571;-48
2021/05/17 08:01:35;;;;;;;4.35;2.40;;;;;;;27.00;41.35;100463.77;1707749;82;21063;-48
2021/05/17 08:04:03;;;;;;;3.65;2.55;;;;;;;26.90;41.63;100466.97;1709580;81;21068;-48
2021/05/17 08:06:30;;;;;;;9.30;2.25;;;;;;;26.73;41.45;100467.69;1713238;82;21060;-47
2021/05/17 08:08:57;;;;;;;3.65;2.10;;;;;;;26.73;41.45;100467.69;1702324;82;21040;-48
2021/05/17 08:11:24;;;;;;;3.47;2.27;;;;;;;26.66;40.90;100457.23;1757405;79;21123;-48
2021/05/17 08:13:50;;;;;;;4.05;2.37;;;;;;;26.59;41.51;100456.09;1769642;79;21075;-48
2021/05/17 08:16:17;;;;;;;3.55;2.02;;;;;;;26.55;41.10;100460.89;1758632;81;21057;-48
2021/05/17 08:18:45;;;;;;;2.77;1.92;;;;;;;26.52;40.78;100461.67;1745309;81;21052;-48
2021/05/17 08:21:12;;;;;;;3.75;2.50;;;;;;;26.47;41.05;100462.09;1790976;79;21033;-48
2021/05/17 08:23:39;;;;;;;5.62;2.52;;;;;;;26.44;41.67;100469.55;1780018;78;21087;-47
2021/05/17 08:26:07;;;;;;;3.50;2.00;;;;;;;26.40;42.48;100470.77;1745928;82;21119;-48
2021/05/17 08:28:36;;;;;;;2.95;2.10;;;;;;;26.39;42.93;100473.11;1717604;81;21045;-48
2021/05/17 08:31:03;;;;;;;4.55;2.83;;;;;;;26.36;43.41;100473.38;1702790;83;21146;-48
2021/05/17 08:33:32;;;;;;;2.25;1.80;;;;;;;26.33;43.46;100471.00;1683362;83;21599;-48
2021/05/17 08:36:00;;;;;;;2.25;2.00;;;;;;;26.31;43.28;100471.64;1716349;81;21190;-48
2021/05/17 08:38:27;;;;;;;3.02;2.00;;;;;;;26.22;43.53;100470.65;1738675;80;21100;-48
2021/05/17 08:40:55;;;;;;;2.75;2.10;;;;;;;26.22;43.53;100470.65;1741608;80;21619;-48
2021/05/17 08:43:24;;;;;;;3.00;2.05;;;;;;;26.18;43.95;100463.06;1745212;80;21053;-47
2021/05/17 08:45:53;;;;;;;4.30;2.40;;;;;;;26.18;45.03;100471.91;1697066;83;21198;-48
2021/05/17 08:48:20;;;;;;;4.03;2.33;;;;;;;26.18;45.28;100477.73;1683209;84;21143;-48
2021/05/17 08:50:47;;;;;;;4.95;2.65;;;;;;;26.18;45.35;100468.39;1707086;83;21105;-48
2021/05/17 08:53:13;;;;;;;4.03;2.12;;;;;;;26.19;45.02;100466.09;1684785;83;21163;-48
2021/05/17 08:55:41;;;;;;;5.12;2.42;;;;;;;26.19;45.02;100466.09;1698068;83;21035;-48
2021/05/17 08:58:07;;;;;;;2.72;2.10;;;;;;;26.20;44.89;100462.42;1698517;83;21073;-48
2021/05/17 09:00:35;;;;;;;3.52;2.20;;;;;;;26.23;44.41;100463.50;1697935;83;21084;-48
2021/05/17 09:03:02;;;;;;;4.62;3.00;;;;;;;26.24;44.37;100459.83;1683694;83;21120;-49
2021/05/17 09:08:03;;;;;;;4.47;2.27;;;;;;;26.27;44.82;100456.90;1645434;86;21103;-48
2021/05/17 09:10:38;;;;;;;4.08;1.95;;;;;;;26.27;44.61;100462.23;1634913;86;21628;-48
2021/05/17 09:13:16;;;;;;;6.30;2.42;;;;;;;26.27;43.83;100463.56;1628745;86;21624;-48
2021/05/17 09:15:51;;;;;;;3.02;1.92;;;;;;;26.27;43.47;100467.56;1648342;86;21160;-48
2021/05/17 09:18:27;;;;;;;2.20;2.00;;;;;;;26.24;43.61;100456.68;1620844;86;21588;-48
2021/05/17 09:20:56;;;;;;;2.67;1.80;;;;;;;26.27;44.07;100463.08;1631784;86;21091;-49
2021/05/17 09:23:31;;;;;;;2.33;1.92;;;;;;;26.27;44.16;100463.08;1643169;86;21658;-48
2021/05/17 09:26:16;;;;;;;5.42;2.30;;;;;;;26.30;44.18;100463.27;1599806;88;21121;-49
2021/05/17 09:28:47;;;;;;;3.98;2.37;;;;;;;26.29;44.64;100461.60;1601356;87;21149;-49
2021/05/17 09:31:17;;;;;;;2.10;1.90;;;;;;;26.29;45.74;100465.60;1657228;84;21242;-48
2021/05/17 09:33:55;;;;;;;3.33;2.00;;;;;;;26.29;45.74;100465.60;1618761;86;21651;-48
2021/05/17 09:36:39;;;;;;;4.22;2.05;;;;;;;26.29;45.40;100465.60;1629479;86;21170;-48
2021/05/17 09:39:11;;;;;;;3.42;2.00;;;;;;;26.33;45.32;100466.52;1607374;87;21079;-49
2021/05/17 09:41:50;;;;;;;3.60;2.40;;;;;;;26.38;44.81;100464.25;1617904;87;21111;-48
2021/05/17 09:44:20;;;;;;;3.20;2.62;;;;;;;26.44;45.41;100464.20;1599822;87;21646;-48
2021/05/17 09:47:12;;;;;;;3.47;2.67;;;;;;;26.47;46.11;100461.23;1612594;87;21054;-48
2021/05/17 09:49:50;;;;;;;2.30;2.10;;;;;;;26.47;46.27;100466.58;1618786;87;21071;-48
2021/05/17 09:52:28;;;;;;;2.92;2.00;;;;;;;26.47;46.26;100470.58;1602191;87;21091;-48
2021/05/17 09:55:02;;;;;;;3.00;2.00;;;;;;;26.31;46.67;100469.83;1596474;88;21123;-48
2021/05/17 09:57:35;;;;;;;3.17;1.82;;;;;;;26.27;46.90;100470.23;1604833;87;21055;-49
2021/05/17 10:00:20;;;;;;;2.40;2.00;;;;;;;26.21;47.20;100471.64;1584331;89;21598;-48
2021/05/17 10:02:48;;;;;;;2.65;2.00;;;;;;;26.16;47.31;100473.02;1525367;92;21783;-48
2021/05/17 10:05:31;;;;;;;2.12;1.50;;;;;;;26.12;47.32;100475.14;1544695;91;21078;-48
2021/05/17 10:08:04;;;;;;;2.30;1.57;;;;;;;26.11;47.46;100467.28;1512611;94;21133;-48
2021/05/17 10:10:32;;;;;;;2.25;1.60;;;;;;;26.12;47.50;100463.62;1531235;92;21185;-48
2021/05/17 10:13:01;;;;;;;2.15;1.77;;;;;;;26.13;47.57;100461.32;1540701;92;21103;-48
2021/05/17 10:15:32;;;;;;;2.95;1.90;;;;;;;26.11;47.79;100457.44;1535126;92;21658;-48
2021/05/17 10:17:59;;;;;;;2.77;1.62;;;;;;;26.14;47.84;100457.17;1533612;92;21181;-48
2021/05/17 10:20:28;;;;;;;5.28;2.10;;;;;;;26.15;47.71;100452.69;1547742;92;21148;-48
2021/05/17 10:22:56;;;;;;;3.77;1.90;;;;;;;26.15;47.71;100452.69;1549912;92;21122;-48
2021/05/17 10:25:31;;;;;;;3.15;2.00;;;;;;;26.15;47.41;100456.17;1545578;92;21106;-49
2021/05/17 10:28:00;;;;;;;3.92;1.92;;;;;;;26.15;47.21;100455.36;1542207;92;21098;-48
2021/05/17 10:30:31;;;;;;;3.75;1.98;;;;;;;26.16;46.97;100446.36;1572066;88;21092;-48
2021/05/17 10:33:01;;;;;;;1.97;1.63;;;;;;;26.17;46.87;100445.39;1617361;88;21093;-49
2021/05/17 10:35:35;;;;;;;2.52;1.98;;;;;;;26.20;46.54;100443.28;1608239;88;21652;-49
2021/05/17 10:38:16;;;;;;;4.67;2.05;;;;;;;26.24;46.43;100442.01;1550317;90;21698;-48
2021/05/17 10:40:46;;;;;;;3.60;2.40;;;;;;;26.26;46.38;100441.86;1562916;90;21399;-48
2021/05/17 10:48:31;;;;;;;3.52;2.10;;;;;;;26.27;46.89;100431.08;1507684;95;21096;-47
2021/05/17 10:51:15;;;;;;;2.10;1.60;;;;;;;26.37;46.37;100429.73;1508185;95;21135;-48
2021/05/17 10:53:58;;;;;;;3.62;2.67;;;;;;;26.40;45.92;100430.76;1507593;95;21117;-48
2021/05/17 10:56:50;;;;;;;2.25;1.65;;;;;;;26.45;45.92;100429.38;1504985;94;21123;-47
2021/05/17 11:02:01;;;;;;;3.85;2.05;;;;;;;26.54;45.34;100438.35;1488375;94;21168;-48
2021/05/17 11:04:35;;;;;;;2.40;1.98;;;;;;;26.55;45.50;100433.35;1457001;97;21715;-48
2021/05/17 11:07:16;;;;;;;4.92;2.50;;;;;;;26.59;45.58;100441.42;1439949;98;21676;-48
2021/05/17 11:10:09;;;;;;;4.17;2.52;;;;;;;26.62;45.73;100435.81;1455703;98;21188;-48
2021/05/17 11:12:47;;;;;;;3.17;2.15;;;;;;;26.63;45.84;100442.81;1441495;98;21698;-48
2021/05/17 11:15:18;;;;;;;3.10;2.12;;;;;;;26.60;45.88;100443.12;1450062;98;21290;-48
2021/05/17 11:18:11;;;;;;;4.40;2.20;;;;;;;26.60;45.88;100443.12;1452660;98;21202;-48
2021/05/17 11:20:48;;;;;;;6.47;1.95;;;;;;;26.63;46.19;100445.48;1455177;97;21338;-48
2021/05/17 11:23:38;;;;;;;4.62;2.20;;;;;;;26.71;45.89;100439.45;1450743;98;21156;-47
2021/05/17 11:28:43;;;;;;;2.95;1.90;;;;;;;26.87;45.34;100443.73;1429091;99;21112;-48
2021/05/17 11:31:26;;;;;;;4.67;2.45;;;;;;;26.94;45.09;100447.48;1401629;101;21185;-48
2021/05/17 11:34:05;;;;;;;4.92;2.15;;;;;;;26.96;44.79;100445.02;1413438;100;21163;-50
2021/05/17 11:36:47;;;;;;;4.30;2.55;;;;;;;26.93;44.91;100450.67;1425696;97;21733;-49
2021/05/17 11:39:18;;;;;;;4.40;2.58;;;;;;;26.88;45.46;100457.41;1393343;101;21151;-49
2021/05/17 11:42:03;;;;;;;4.72;2.42;;;;;;;26.82;46.18;100451.31;1392410;101;21272;-48
2021/05/17 11:47:13;;;;;;;4.20;2.25;;;;;;;26.72;46.65;100456.69;1398873;101;21187;-48
2021/05/17 11:49:44;;;;;;;3.50;2.30;;;;;;;26.63;46.71;100448.16;1392789;101;21633;-49
2021/05/17 11:52:18;;;;;;;3.62;2.67;;;;;;;26.52;46.98;100445.66;1416399;98;21201;-49
2021/05/17 11:54:51;;;;;;;3.80;3.10;;;;;;;26.38;47.97;100453.59;1412395;100;21128;-48
2021/05/17 11:57:29;;;;;;;5.50;2.58;;;;;;;26.38;47.97;100453.59;1415936;100;21168;-48
2021/05/17 11:59:57;;;;;;;5.58;2.70;;;;;;;26.35;47.78;100445.03;1416041;100;21441;-48
2021/05/17 12:02:24;;;;;;;4.62;2.62;;;;;;;26.34;47.85;100441.52;1411475;100;21205;-49
2021/05/17 12:04:51;;;;;;;5.72;3.22;;;;;;;26.33;47.82;100439.00;1425977;99;21159;-49
2021/05/17 12:07:18;;;;;;;4.90;3.37;;;;;;;26.29;47.82;100432.26;1442588;98;21218;-50
2021/05/17 12:09:53;;;;;;;4.78;2.87;;;;;;;26.28;47.89;100437.23;1461736;96;21165;-48